Provisional Data: Long Run near Gaines, PA


Please select a monitoring station.
Please select start date.
Please select start date.

Toggle Unit: C/F Toggle Unit: C/F
Sample Time Temperature (C) Temperature (F) Specific Conductivity (mS/cm) pH   Turbidity (NTU+) DO (mg/L)
8/1/2022 12:00:00 AM 18.21 64.778 0.121 7.23 4.67 7.84
8/1/2022 12:15:00 AM 18.12 64.616 0.121 7.23 4.73 7.86
8/1/2022 12:30:00 AM 18.04 64.472 0.121 7.23 4.83 7.88
8/1/2022 12:45:00 AM 17.96 64.328 0.121 7.23 4.75 7.9
8/1/2022 1:00:00 AM 17.89 64.202 0.121 7.23 4.72 7.9
8/1/2022 1:15:00 AM 17.84 64.112 0.121 7.23 4.75 7.92
8/1/2022 1:30:00 AM 17.79 64.022 0.121 7.22 4.9 7.93
8/1/2022 1:45:00 AM 17.74 63.932 0.121 7.22 4.68 7.94
8/1/2022 2:00:00 AM 17.7 63.86 0.121 7.22 4.7 7.96
8/1/2022 2:15:00 AM 17.66 63.788 0.121 7.22 4.63 7.96
8/1/2022 2:30:00 AM 17.63 63.734 0.121 7.22 4.62 7.98
8/1/2022 2:45:00 AM 17.6 63.68 0.121 7.22 4.68 7.98
8/1/2022 3:00:00 AM 17.57 63.626 0.121 7.22 4.76 7.99
8/1/2022 3:15:00 AM 17.55 63.59 0.121 7.22 4.67 8
8/1/2022 3:30:00 AM 17.53 63.554 0.121 7.22 4.69 8.01
8/1/2022 3:45:00 AM 17.51 63.518 0.121 7.22 4.7 8.01
8/1/2022 4:00:00 AM 17.49 63.482 0.121 7.22 5.25 8.01
8/1/2022 4:15:00 AM 17.47 63.446 0.121 7.22 4.83 8.01
8/1/2022 4:30:00 AM 17.45 63.41 0.121 7.21 5.67 8
8/1/2022 4:45:00 AM 17.44 63.392 0.121 7.21 6.57 7.99
8/1/2022 5:00:00 AM 17.42 63.356 0.121 7.21 6.76 7.96
8/1/2022 5:15:00 AM 17.4 63.32 0.121 7.21 5.36 7.95
8/1/2022 5:30:00 AM 17.38 63.284 0.121 7.21 5.18 7.94
8/1/2022 5:45:00 AM 17.37 63.266 0.121 7.21 5.47 8.01
8/1/2022 6:00:00 AM 17.35 63.23 0.121 7.21 5.27 7.99
8/1/2022 6:15:00 AM 17.34 63.212 0.121 7.22 5.26 8.09
8/1/2022 6:30:00 AM 17.34 63.212 0.121 7.23 5.34 8.18
8/1/2022 6:45:00 AM 17.36 63.248 0.121 7.24 5.29 8.23
8/1/2022 7:00:00 AM 17.38 63.284 0.121 7.26 5.26 8.32
8/1/2022 7:15:00 AM 17.39 63.302 0.121 7.26 5.42 8.37
8/1/2022 7:30:00 AM 17.41 63.338 0.121 7.27 5.38 8.4
8/1/2022 7:45:00 AM 17.45 63.41 0.12 7.28 5.4 8.44
8/1/2022 8:00:00 AM 17.5 63.5 0.12 7.29 5.78 8.56
8/1/2022 8:15:00 AM 17.55 63.59 0.12 7.31 5.76 8.65
8/1/2022 8:30:00 AM 17.63 63.734 0.12 7.33 5.47 8.74
8/1/2022 8:45:00 AM 17.72 63.896 0.12 7.34 6.36 8.81
8/1/2022 9:00:00 AM 17.86 64.148 0.12 7.36 4.87 8.93
8/1/2022 9:15:00 AM 17.93 64.274 0.119 7.38 4.63 8.98
8/1/2022 9:30:00 AM 18.03 64.454 0.119 7.4 4.69 9.01
8/1/2022 9:45:00 AM 18.1 64.58 0.119 7.41 4.65 9.04
8/1/2022 10:00:00 AM 18.23 64.814 0.119 7.43 4.67 9.1
8/1/2022 10:15:00 AM 18.39 65.102 0.119 7.44 4.7 9.13
8/1/2022 10:30:00 AM 18.58 65.444 0.118 7.45 5.57 9.14
8/1/2022 10:45:00 AM 18.8 65.84 0.118 7.47 4.58 9.15
8/1/2022 11:00:00 AM 19.05 66.29 0.118 7.49 4.38 9.12
8/1/2022 11:15:00 AM 19.42 66.956 0.118 7.51 4.36 8.99
8/1/2022 11:30:00 AM 19.75 67.55 0.118 7.49 6.79 9.01
8/1/2022 11:45:00 AM 20.09 68.162 0.118 7.5 4.45 8.98
8/1/2022 12:00:00 PM 20.39 68.702 0.118 7.51 4.69 8.97
8/1/2022 12:15:00 PM 20.61 69.098 0.118 7.53 4.44 8.94
8/1/2022 12:30:00 PM 20.81 69.458 0.118 7.53 4.77 8.87
8/1/2022 12:45:00 PM 21.02 69.836 0.118 7.53 4.42 8.87
8/1/2022 1:00:00 PM 21.12 70.016 0.118 7.54 4.28 8.78
8/1/2022 1:15:00 PM 21.09 69.962 0.118 7.52 6.13 8.65
8/1/2022 1:30:00 PM 21.14 70.052 0.118 7.49 4.32 8.54
8/1/2022 1:45:00 PM 21.18 70.124 0.118 7.5 4.26 8.62
8/1/2022 2:00:00 PM 21.19 70.142 0.118 7.5 4.47 8.56
8/1/2022 2:15:00 PM 21.21 70.17799 0.118 7.5 4.53 8.55
8/1/2022 2:30:00 PM 21.24 70.232 0.118 7.49 5.24 8.48
8/1/2022 2:45:00 PM 21.28 70.304 0.118 7.49 5.58 8.46
8/1/2022 3:00:00 PM 21.31 70.358 0.118 7.5 7.27 8.38
8/1/2022 3:15:00 PM 21.38 70.484 0.118 7.5 4.5 8.43
8/1/2022 3:30:00 PM 21.4 70.52 0.118 7.5 4.82 8.34
8/1/2022 3:45:00 PM 21.44 70.592 0.118 7.49 7.42 8.32
8/1/2022 4:00:00 PM 21.51 70.718 0.118 7.48 6.62 8.25
8/1/2022 4:15:00 PM 21.51 70.718 0.118 7.47 5.36 8.25
8/1/2022 4:30:00 PM 21.54 70.772 0.118 7.47 5.18 8.22
8/1/2022 4:45:00 PM 21.52 70.736 0.119 7.47 4.67 8.15
8/1/2022 5:00:00 PM 21.51 70.718 0.119 7.44 4.81 8.05
8/1/2022 5:15:00 PM 21.5 70.7 0.119 7.43 4.81 8.02
8/1/2022 5:30:00 PM 21.49 70.682 0.119 7.43 4.98 8.06
8/1/2022 5:45:00 PM 21.42 70.556 0.119 7.42 4.97 7.95
8/1/2022 6:00:00 PM 21.36 70.448 0.119 7.41 4.35 7.91
8/1/2022 6:15:00 PM 21.28 70.304 0.119 7.39 4.23 7.83
8/1/2022 6:30:00 PM 21.2 70.16 0.12 7.39 4.72 7.8
8/1/2022 6:45:00 PM 21.15 70.07 0.12 7.38 4.85 7.74
8/1/2022 7:00:00 PM 21.08 69.944 0.12 7.36 4.81 7.63
8/1/2022 7:15:00 PM 21.02 69.836 0.12 7.33 5.09 7.63
8/1/2022 7:30:00 PM 20.95 69.71 0.12 7.32 5.15 7.57
8/1/2022 7:45:00 PM 20.86 69.548 0.121 7.31 5.21 7.54
8/1/2022 8:00:00 PM 20.77 69.386 0.12 7.3 5.9 7.52
8/1/2022 8:15:00 PM 20.68 69.224 0.121 7.29 4.67 7.48
8/1/2022 8:30:00 PM 20.59 69.062 0.121 7.29 4.49 7.45
8/1/2022 8:45:00 PM 20.49 68.882 0.121 7.28 4.62 7.46
8/1/2022 9:00:00 PM 20.39 68.702 0.121 7.27 4.55 7.44
8/1/2022 9:15:00 PM 20.29 68.522 0.121 7.27 4.46 7.38
8/1/2022 9:30:00 PM 20.19 68.342 0.121 7.26 4.67 7.43
8/1/2022 9:45:00 PM 20.08 68.144 0.121 7.26 4.45 7.43
8/1/2022 10:00:00 PM 19.99 67.982 0.121 7.25 4.49 7.43
8/1/2022 10:15:00 PM 19.89 67.802 0.121 7.25 4.42 7.45
8/1/2022 10:30:00 PM 19.78 67.604 0.121 7.24 4.37 7.45
8/1/2022 10:45:00 PM 19.7 67.46 0.122 7.24 4.45 7.44
8/1/2022 11:00:00 PM 19.6 67.28 0.122 7.24 4.38 7.47
8/1/2022 11:15:00 PM 19.51 67.118 0.122 7.24 4.44 7.5
8/1/2022 11:30:00 PM 19.42 66.956 0.122 7.24 4.47 7.49
8/1/2022 11:45:00 PM 19.33 66.794 0.122 7.23 4.52 7.52
8/2/2022 12:00:00 AM 19.25 66.65 0.122 7.23 4.65 7.53
8/2/2022 12:15:00 AM 19.17 66.506 0.122 7.23 4.7 7.54
8/2/2022 12:30:00 AM 19.1 66.38 0.122 7.23 4.51 7.54
8/2/2022 12:45:00 AM 19.02 66.236 0.122 7.23 4.72 7.56
8/2/2022 1:00:00 AM 18.96 66.128 0.122 7.22 4.38 7.58
8/2/2022 1:15:00 AM 18.91 66.038 0.122 7.22 4.45 7.58
8/2/2022 1:30:00 AM 18.86 65.948 0.122 7.22 4.62 7.59
8/2/2022 1:45:00 AM 18.8 65.84 0.122 7.22 4.75 7.62
8/2/2022 2:00:00 AM 18.75 65.75 0.122 7.22 4.27 7.62
8/2/2022 2:15:00 AM 18.7 65.66 0.122 7.22 4.35 7.63
8/2/2022 2:30:00 AM 18.64 65.552 0.122 7.21 4.27 7.65
8/2/2022 2:45:00 AM 18.59 65.462 0.122 7.21 4.46 7.67
8/2/2022 3:00:00 AM 18.55 65.39 0.122 7.21 4.88 7.62
8/2/2022 3:15:00 AM 18.51 65.318 0.122 7.21 4.57 7.65
8/2/2022 3:30:00 AM 18.47 65.246 0.122 7.2 4.88 7.64
8/2/2022 3:45:00 AM 18.44 65.192 0.122 7.2 4.57 7.62
8/2/2022 4:00:00 AM 18.41 65.138 0.122 7.2 4.58 7.63
8/2/2022 4:15:00 AM 18.38 65.084 0.122 7.2 4.52 7.62
8/2/2022 4:30:00 AM 18.34 65.012 0.122 7.2 4.83 7.6
8/2/2022 4:45:00 AM 18.3 64.94 0.122 7.2 6.25 7.67
8/2/2022 5:00:00 AM 18.26 64.868 0.122 7.2 4.66 7.62
8/2/2022 5:15:00 AM 18.21 64.778 0.122 7.19 4.65 7.67
8/2/2022 5:30:00 AM 18.17 64.706 0.122 7.19 4.77 7.61
8/2/2022 5:45:00 AM 18.12 64.616 0.122 7.19 6.14 7.71
8/2/2022 6:00:00 AM 18.09 64.562 0.122 7.19 4.68 7.64
8/2/2022 6:15:00 AM 18.07 64.526 0.122 7.2 4.75 7.72
8/2/2022 6:30:00 AM 18.06 64.508 0.122 7.21 4.61 7.75
8/2/2022 6:45:00 AM 18.03 64.454 0.122 7.21 4.9 7.9
8/2/2022 7:00:00 AM 18.03 64.454 0.122 7.22 4.39 7.92
8/2/2022 7:15:00 AM 18.04 64.472 0.122 7.23 4.42 7.99
8/2/2022 7:30:00 AM 18.07 64.526 0.122 7.24 4.48 8.07
8/2/2022 7:45:00 AM 18.11 64.598 0.121 7.25 4.52 8.18
8/2/2022 8:00:00 AM 18.17 64.706 0.121 7.26 4.51 8.24
8/2/2022 8:15:00 AM 18.28 64.904 0.121 7.27 4.8 8.4
8/2/2022 8:30:00 AM 18.37 65.066 0.121 7.29 4.34 8.36
8/2/2022 8:45:00 AM 18.5 65.3 0.121 7.32 4.37 8.44
8/2/2022 9:00:00 AM 18.62 65.516 0.121 7.33 4.48 8.44
8/2/2022 9:15:00 AM 18.76 65.768 0.12 7.34 4.4 8.51
8/2/2022 9:30:00 AM 18.92 66.056 0.12 7.35 5.84 8.62
8/2/2022 9:45:00 AM 19.17 66.506 0.12 7.37 4.37 8.69
8/2/2022 10:00:00 AM 19.39 66.902 0.12 7.39 4.83 8.72
8/2/2022 10:15:00 AM 19.61 67.298 0.12 7.4 4.89 8.73
8/2/2022 10:30:00 AM 19.88 67.784 0.12 7.42 4.18 8.75
8/2/2022 10:45:00 AM 20.19 68.342 0.12 7.43 5.29 8.7
8/2/2022 11:00:00 AM 20.55 68.99 0.12 7.44 3.7 8.74
8/2/2022 11:15:00 AM 20.83 69.494 0.119 7.46 4.2 8.73
8/2/2022 11:30:00 AM 21.08 69.944 0.119 7.46 3.76 8.66
8/2/2022 11:45:00 AM 21.24 70.232 0.119 7.46 3.82 8.59
8/2/2022 12:00:00 PM 21.53 70.754 0.119 7.47 4.92 8.62
8/2/2022 12:15:00 PM 21.67 71.006 0.119 7.47 4.34 8.61
8/2/2022 12:30:00 PM 21.77 71.186 0.119 7.47 4.37 8.5
8/2/2022 12:45:00 PM 21.91 71.438 0.119 7.48 3.98 8.5
8/2/2022 1:00:00 PM 21.93 71.474 0.12 7.48 4.23 8.4
8/2/2022 1:15:00 PM 21.9 71.42 0.119 7.47 3.93 8.33
8/2/2022 1:30:00 PM 21.83 71.294 0.119 7.46 4.33 8.27
8/2/2022 1:45:00 PM 21.76 71.168 0.12 7.44 4.1 8.18
8/2/2022 2:00:00 PM 21.68 71.024 0.12 7.44 4.36 8.14
8/2/2022 2:15:00 PM 21.67 71.006 0.119 7.45 4.38 8.1
8/2/2022 2:30:00 PM 21.69 71.042 0.119 7.43 4.27 8.11
8/2/2022 2:45:00 PM 21.68 71.024 0.119 7.42 4.57 8.02
8/2/2022 3:00:00 PM 21.69 71.042 0.119 7.42 4.25 8.02
8/2/2022 3:15:00 PM 21.72 71.096 0.119 7.41 4.19 7.92
8/2/2022 3:30:00 PM 21.72 71.096 0.119 7.41 4.27 7.97
8/2/2022 3:45:00 PM 21.73 71.114 0.119 7.42 4.27 7.98
8/2/2022 4:00:00 PM 21.71 71.078 0.12 7.39 4.43 7.89
8/2/2022 4:15:00 PM 21.76 71.168 0.119 7.4 4.24 7.86
8/2/2022 4:30:00 PM 21.72 71.096 0.12 7.38 4.62 7.78
8/2/2022 4:45:00 PM 21.71 71.078 0.12 7.37 4.55 7.7
8/2/2022 5:00:00 PM 21.7 71.06 0.12 7.38 4.42 7.73
8/2/2022 5:15:00 PM 21.65 70.97 0.12 7.37 4.41 7.66
8/2/2022 5:30:00 PM 21.61 70.898 0.12 7.37 4.65 7.54
8/2/2022 5:45:00 PM 21.54 70.772 0.121 7.36 4.37 7.57
8/2/2022 6:00:00 PM 21.5 70.7 0.121 7.34 4.41 7.55
8/2/2022 6:15:00 PM 21.41 70.538 0.121 7.34 4.53 7.39
8/2/2022 6:30:00 PM 21.35 70.43 0.121 7.32 4.51 7.46
8/2/2022 6:45:00 PM 21.27 70.286 0.121 7.32 4.29 7.52
8/2/2022 7:00:00 PM 21.18 70.124 0.121 7.31 4.67 7.51
8/2/2022 7:15:00 PM 21.07 69.926 0.121 7.3 4.47 7.48
8/2/2022 7:30:00 PM 20.96 69.728 0.122 7.29 4.24 7.36
8/2/2022 7:45:00 PM 20.84 69.512 0.122 7.29 4.76 7.48
8/2/2022 8:00:00 PM 20.7 69.26 0.122 7.29 4.3 7.45
8/2/2022 8:15:00 PM 20.58 69.044 0.122 7.28 4.22 7.44
8/2/2022 8:30:00 PM 20.45 68.81 0.122 7.27 4.23 7.43
8/2/2022 8:45:00 PM 20.34 68.612 0.122 7.26 4.27 7.41
8/2/2022 9:00:00 PM 20.19 68.342 0.122 7.26 4.31 7.4
8/2/2022 9:15:00 PM 20.09 68.162 0.122 7.25 4.24 7.43
8/2/2022 9:30:00 PM 19.96 67.92799 0.122 7.25 4.26 7.43
8/2/2022 9:45:00 PM 19.83 67.694 0.122 7.24 4.21 7.44
8/2/2022 10:00:00 PM 19.71 67.478 0.122 7.23 4.26 7.46
8/2/2022 10:15:00 PM 19.59 67.262 0.122 7.24 4.33 7.45
8/2/2022 10:30:00 PM 19.47 67.046 0.122 7.23 4.34 7.48
8/2/2022 10:45:00 PM 19.35 66.83 0.122 7.22 4.32 7.5
8/2/2022 11:00:00 PM 19.24 66.632 0.122 7.22 4.27 7.52
8/2/2022 11:15:00 PM 19.12 66.416 0.122 7.22 4.25 7.54
8/2/2022 11:30:00 PM 19.01 66.218 0.122 7.22 4.17 7.56
8/2/2022 11:45:00 PM 18.9 66.02 0.122 7.21 4.33 7.58
8/3/2022 12:00:00 AM 18.79 65.82201 0.122 7.21 4.37 7.61
8/3/2022 12:15:00 AM 18.68 65.624 0.122 7.21 4.3 7.62
8/3/2022 12:30:00 AM 18.59 65.462 0.122 7.21 4.36 7.64
8/3/2022 12:45:00 AM 18.47 65.246 0.122 7.21 4.4 7.67
8/3/2022 1:00:00 AM 18.37 65.066 0.122 7.21 4.3 7.7
8/3/2022 1:15:00 AM 18.28 64.904 0.122 7.21 4.37 7.71
8/3/2022 1:30:00 AM 18.16 64.688 0.122 7.21 4.56 7.75
8/3/2022 1:45:00 AM 18.07 64.526 0.122 7.2 4.91 7.77
8/3/2022 2:00:00 AM 17.97 64.346 0.122 7.19 4.38 7.78
8/3/2022 2:15:00 AM 17.87 64.166 0.122 7.19 4.43 7.82
8/3/2022 2:30:00 AM 17.78 64.004 0.122 7.17 4.4 7.82
8/3/2022 2:45:00 AM 17.69 63.842 0.122 7.15 4.28 7.85
8/3/2022 3:00:00 AM 17.59 63.662 0.122 7.16 4.39 7.88
8/3/2022 3:15:00 AM 17.51 63.518 0.122 7.15 4.33 7.88
8/3/2022 3:30:00 AM 17.4 63.32 0.122 7.14 4.46 7.92
8/3/2022 3:45:00 AM 17.31 63.158 0.122 7.13 4.6 7.95
8/3/2022 4:00:00 AM 17.22 62.996 0.122 7.12 4.51 7.95
8/3/2022 4:15:00 AM 17.15 62.87 0.122 7.12 5.05 7.86
8/3/2022 4:30:00 AM 17.07 62.726 0.122 7.11 5.01 7.91
8/3/2022 4:45:00 AM 17 62.6 0.122 7.11 4.74 7.92
8/3/2022 5:00:00 AM 16.94 62.492 0.122 7.11 4.69 7.92
8/3/2022 5:15:00 AM 16.88 62.384 0.122 7.11 4.93 7.89
8/3/2022 5:30:00 AM 16.82 62.276 0.122 7.11 4.81 7.91
8/3/2022 5:45:00 AM 16.77 62.186 0.122 7.12 5.1 7.96
8/3/2022 6:00:00 AM 16.74 62.132 0.122 7.12 4.89 7.95
8/3/2022 6:15:00 AM 16.69 62.042 0.122 7.13 4.67 8
8/3/2022 6:30:00 AM 16.65 61.97 0.122 7.14 4.59 8.01
8/3/2022 6:45:00 AM 16.62 61.916 0.122 7.15 4.64 8.12
8/3/2022 7:00:00 AM 16.61 61.898 0.122 7.17 4.69 8.19
8/3/2022 7:15:00 AM 16.6 61.88 0.122 7.19 4.64 8.32
8/3/2022 7:30:00 AM 16.6 61.88 0.122 7.2 6.15 8.27
8/3/2022 7:45:00 AM 16.61 61.898 0.122 7.21 5.2 8.43
8/3/2022 8:00:00 AM 16.66 61.988 0.122 7.23 4.67 8.43
8/3/2022 8:15:00 AM 16.73 62.114 0.122 7.25 4.63 8.46
8/3/2022 8:30:00 AM 16.84 62.312 0.121 7.26 4.67 8.63
8/3/2022 8:45:00 AM 16.99 62.582 0.121 7.27 4.95 8.64
8/3/2022 9:00:00 AM 17.2 62.96 0.121 7.29 4.61 8.72
8/3/2022 9:15:00 AM 17.46 63.428 0.121 7.32 4.62 8.64
8/3/2022 9:30:00 AM 17.78 64.004 0.121 7.34 4.58 8.7
8/3/2022 9:45:00 AM 17.98 64.364 0.121 7.35 4.66 8.64
8/3/2022 10:00:00 AM 18.27 64.886 0.121 7.37 4.64 8.75
8/3/2022 10:15:00 AM 18.6 65.48 0.12 7.38 4.64 8.69
8/3/2022 10:30:00 AM 18.76 65.768 0.121 7.37 4.64 8.64
8/3/2022 10:45:00 AM 19.08 66.344 0.12 7.4 4.59 8.73
8/3/2022 11:00:00 AM 19.39 66.902 0.12 7.4 4.76 8.78
8/3/2022 11:15:00 AM 19.74 67.532 0.12 7.41 4.79 8.75
8/3/2022 11:30:00 AM 20.08 68.144 0.12 7.43 6.16 8.82
8/3/2022 11:45:00 AM 20.35 68.63 0.12 7.45 4.82 8.73
8/3/2022 12:00:00 PM 20.72 69.296 0.12 7.45 5.17 8.73
8/3/2022 12:15:00 PM 20.96 69.728 0.12 7.45 4.97 8.68
8/3/2022 12:30:00 PM 21.2 70.16 0.12 7.47 5.11 8.66
8/3/2022 12:45:00 PM 21.3 70.34 0.12 7.47 4.58 8.59
8/3/2022 1:00:00 PM 21.34 70.412 0.12 7.47 4.6 8.55
8/3/2022 1:15:00 PM 21.32 70.376 0.12 7.46 4.81 8.45
8/3/2022 1:30:00 PM 21.28 70.304 0.12 7.46 4.93 8.39
8/3/2022 1:45:00 PM 21.27 70.286 0.12 7.45 4.87 8.25
8/3/2022 2:00:00 PM 21.29 70.32201 0.12 7.43 4.9 8.14
8/3/2022 2:15:00 PM 21.29 70.32201 0.12 7.42 4.61 8.17
8/3/2022 2:30:00 PM 21.33 70.394 0.12 7.41 4.68 8.11
8/3/2022 2:45:00 PM 21.35 70.43 0.12 7.41 4.71 8.08
8/3/2022 3:00:00 PM 21.37 70.466 0.12 7.4 4.79 7.95
8/3/2022 3:15:00 PM 21.43 70.574 0.12 7.39 5.35 7.91
8/3/2022 3:30:00 PM 21.44 70.592 0.12 7.41 4.89 7.96
8/3/2022 3:45:00 PM 21.51 70.718 0.12 7.39 4.8 7.85
8/3/2022 4:00:00 PM 21.55 70.79 0.12 7.38 4.7 7.82
8/3/2022 4:15:00 PM 21.59 70.862 0.12 7.38 4.94 7.86
8/3/2022 4:30:00 PM 21.64 70.952 0.12 7.37 4.68 7.76
8/3/2022 4:45:00 PM 21.67 71.006 0.12 7.36 5.03 7.68
8/3/2022 5:00:00 PM 21.7 71.06 0.12 7.36 4.96 7.69
8/3/2022 5:15:00 PM 21.7 71.06 0.12 7.35 4.91 7.63
8/3/2022 5:30:00 PM 21.69 71.042 0.12 7.34 4.9 7.56
8/3/2022 5:45:00 PM 21.67 71.006 0.12 7.33 5.09 7.54
8/3/2022 6:00:00 PM 21.61 70.898 0.121 7.34 5.07 7.51
8/3/2022 6:15:00 PM 21.55 70.79 0.121 7.33 4.97 7.4
8/3/2022 6:30:00 PM 21.5 70.7 0.121 7.32 5.04 7.42
8/3/2022 6:45:00 PM 21.45 70.61 0.121 7.32 4.95 7.4
8/3/2022 7:00:00 PM 21.39 70.502 0.121 7.31 5.07 7.43
8/3/2022 7:15:00 PM 21.31 70.358 0.122 7.29 4.93 7.28
8/3/2022 7:30:00 PM 21.22 70.196 0.122 7.28 4.82 7.25
8/3/2022 7:45:00 PM 21.14 70.052 0.122 7.27 5.62 7.34
8/3/2022 8:00:00 PM 21.04 69.872 0.122 7.27 5.53 7.36
8/3/2022 8:15:00 PM 20.93 69.674 0.122 7.27 5.11 7.35
8/3/2022 8:30:00 PM 20.83 69.494 0.122 7.27 4.94 7.33
8/3/2022 8:45:00 PM 20.72 69.296 0.122 7.25 4.94 7.26
8/3/2022 9:00:00 PM 20.62 69.116 0.123 7.25 4.99 7.32
8/3/2022 9:15:00 PM 20.51 68.918 0.123 7.25 5.18 7.3
8/3/2022 9:30:00 PM 20.42 68.756 0.123 7.24 5.03 7.29
8/3/2022 9:45:00 PM 20.32 68.576 0.123 7.24 5.11 7.34
8/3/2022 10:00:00 PM 20.23 68.414 0.123 7.23 4.97 7.33
8/3/2022 10:15:00 PM 20.13 68.234 0.124 7.23 5.17 6.9
8/3/2022 10:30:00 PM 20.04 68.07201 0.124 7.23 4.96 7.14
8/3/2022 10:45:00 PM 19.95 67.91 0.124 7.22 5.11 7.33
8/3/2022 11:00:00 PM 19.86 67.748 0.123 7.22 5.18 7.35
8/3/2022 11:15:00 PM 19.78 67.604 0.123 7.22 4.99 7.4
8/3/2022 11:30:00 PM 19.69 67.442 0.124 7.22 5.02 7.38
8/3/2022 11:45:00 PM 19.61 67.298 0.124 7.21 5.08 7.42
8/4/2022 12:00:00 AM 19.52 67.136 0.123 7.21 5.21 7.44
8/4/2022 12:15:00 AM 19.44 66.992 0.123 7.21 5.1 7.45
8/4/2022 12:30:00 AM 19.37 66.866 0.123 7.21 5.03 7.47
8/4/2022 12:45:00 AM 19.29 66.722 0.123 7.21 5.17 7.48
8/4/2022 1:00:00 AM 19.22 66.596 0.123 7.2 5.04 7.49
8/4/2022 1:15:00 AM 19.14 66.452 0.123 7.21 5.17 7.51
8/4/2022 1:30:00 AM 19.08 66.344 0.123 7.2 5.11 7.51
8/4/2022 1:45:00 AM 19 66.2 0.123 7.2 5.09 7.53
8/4/2022 2:00:00 AM 18.94 66.092 0.123 7.2 5.15 7.55
8/4/2022 2:15:00 AM 18.86 65.948 0.123 7.2 5.29 7.57
8/4/2022 2:30:00 AM 18.81 65.858 0.123 7.2 5.33 7.58
8/4/2022 2:45:00 AM 18.74 65.732 0.123 7.2 5.3 7.58
8/4/2022 3:00:00 AM 18.68 65.624 0.123 7.17 5.36 7.61
8/4/2022 3:15:00 AM 18.62 65.516 0.123 7.19 5.33 7.61
8/4/2022 3:30:00 AM 18.56 65.408 0.123 7.19 5.28 7.63
8/4/2022 3:45:00 AM 18.49 65.282 0.123 7.19 5.34 7.64
8/4/2022 4:00:00 AM 18.43 65.174 0.123 7.19 5.56 7.64
8/4/2022 4:15:00 AM 18.38 65.084 0.123 7.18 5.42 7.67
8/4/2022 4:30:00 AM 18.32 64.976 0.123 7.18 5.4 7.66
8/4/2022 4:45:00 AM 18.27 64.886 0.123 7.18 4.95 7.63
8/4/2022 5:00:00 AM 18.21 64.778 0.123 7.18 4.99 7.64
8/4/2022 5:15:00 AM 18.15 64.67 0.123 7.18 4.8 7.68
8/4/2022 5:30:00 AM 18.1 64.58 0.123 7.18 5.24 7.69
8/4/2022 5:45:00 AM 18.06 64.508 0.123 7.18 4.94 7.63
8/4/2022 6:00:00 AM 18 64.4 0.123 7.18 5 7.72
8/4/2022 6:15:00 AM 17.97 64.346 0.123 7.19 4.94 7.71
8/4/2022 6:30:00 AM 17.93 64.274 0.123 7.19 5.33 7.83
8/4/2022 6:45:00 AM 17.9 64.22 0.123 7.2 5.26 7.88
8/4/2022 7:00:00 AM 17.89 64.202 0.123 7.21 5.3 7.88
8/4/2022 7:15:00 AM 17.88 64.184 0.123 7.21 4.99 7.89
8/4/2022 7:30:00 AM 17.9 64.22 0.123 7.22 5.08 7.97
8/4/2022 7:45:00 AM 17.96 64.328 0.123 7.23 5 8.08
8/4/2022 8:00:00 AM 18.02 64.436 0.122 7.24 5.03 8.17
8/4/2022 8:15:00 AM 18.07 64.526 0.122 7.24 5.12 8.18
8/4/2022 8:30:00 AM 18.18 64.724 0.122 7.25 6.43 8.29
8/4/2022 8:45:00 AM 18.42 65.156 0.122 7.27 4.87 8.39
8/4/2022 9:00:00 AM 18.56 65.408 0.122 7.28 4.89 8.38
8/4/2022 9:15:00 AM 18.83 65.894 0.122 7.3 4.83 8.48
8/4/2022 9:30:00 AM 19.13 66.434 0.123 7.31 4.9 8.25
8/4/2022 9:45:00 AM 19.46 67.028 0.122 7.34 4.72 8.56
8/4/2022 10:00:00 AM 19.63 67.334 0.122 7.34 4.95 8.45
8/4/2022 10:15:00 AM 19.95 67.91 0.121 7.36 4.75 8.67
8/4/2022 10:30:00 AM 20.14 68.252 0.121 7.39 5.5 8.7
8/4/2022 10:45:00 AM 20.35 68.63 0.121 7.39 4.82 8.66
8/4/2022 11:00:00 AM 20.67 69.206 0.121 7.4 4.88 8.61
8/4/2022 11:15:00 AM 20.81 69.458 0.121 7.42 4.07 8.68
8/4/2022 11:30:00 AM 21.42 70.556 0.121 7.41 5.09 8.59
8/4/2022 11:45:00 AM 21.71 71.078 0.121 7.43 4.86 8.55
8/4/2022 12:00:00 PM 21.88 71.384 0.121 7.46 4.68 8.59
8/4/2022 12:15:00 PM 21.89 71.402 0.121 7.44 4.65 8.44
8/4/2022 12:30:00 PM 21.97 71.546 0.121 7.44 4.67 8.42
8/4/2022 12:45:00 PM 21.86 71.348 0.121 7.43 4.95 8.27
8/4/2022 1:00:00 PM 21.72 71.096 0.121 7.41 5.78 8.2
8/4/2022 1:15:00 PM 21.61 70.898 0.121 7.41 5.28 8.01
8/4/2022 1:30:00 PM 21.57 70.826 0.12 7.4 4.82 8.14
8/4/2022 1:45:00 PM 21.46 70.628 0.121 7.41 4.81 8.1
8/4/2022 2:00:00 PM 21.43 70.574 0.12 7.41 4.72 8.11
8/4/2022 2:15:00 PM 21.39 70.502 0.12 7.41 4.63 8.11
8/4/2022 2:30:00 PM 21.41 70.538 0.12 7.41 4.59 8.21
8/4/2022 2:45:00 PM 21.42 70.556 0.12 7.44 4.62 8.32
8/4/2022 3:00:00 PM 21.4 70.52 0.121 7.44 4.63 8.32
8/4/2022 3:15:00 PM 21.37 70.466 0.12 7.44 4.64 8.23
8/4/2022 3:30:00 PM 21.36 70.448 0.12 7.44 4.59 8.31
8/4/2022 3:45:00 PM 21.36 70.448 0.121 7.44 4.67 8.13
8/4/2022 4:00:00 PM 21.38 70.484 0.12 7.44 4.55 8.26
8/4/2022 4:15:00 PM 21.39 70.502 0.12 7.42 4.72 8.3
8/4/2022 4:30:00 PM 21.41 70.538 0.12 7.42 4.76 8.27
8/4/2022 4:45:00 PM 21.41 70.538 0.12 7.41 5.34 8.22
8/4/2022 5:00:00 PM 21.41 70.538 0.12 7.41 4.73 8.23
8/4/2022 5:15:00 PM 21.41 70.538 0.12 7.42 4.88 8.09
8/4/2022 5:30:00 PM 21.39 70.502 0.12 7.41 4.79 8.15
8/4/2022 5:45:00 PM 21.39 70.502 0.121 7.38 4.78 8.05
8/4/2022 6:00:00 PM 21.35 70.43 0.121 7.37 4.97 7.97
8/4/2022 6:15:00 PM 21.3 70.34 0.121 7.36 5.02 7.63
8/4/2022 6:30:00 PM 21.27 70.286 0.121 7.35 4.59 7.81
8/4/2022 6:45:00 PM 21.23 70.214 0.121 7.35 4.76 7.78
8/4/2022 7:00:00 PM 21.18 70.124 0.121 7.32 4.8 7.7
8/4/2022 7:15:00 PM 21.11 69.998 0.121 7.31 5.05 7.65
8/4/2022 7:30:00 PM 21.03 69.854 0.121 7.31 4.83 7.68
8/4/2022 7:45:00 PM 20.97 69.746 0.121 7.29 5.05 7.62
8/4/2022 8:00:00 PM 20.89 69.602 0.122 7.28 4.84 7.57
8/4/2022 8:15:00 PM 20.82 69.476 0.122 7.27 5.07 7.52
8/4/2022 8:30:00 PM 20.73 69.314 0.122 7.26 4.93 7.49
8/4/2022 8:45:00 PM 20.66 69.188 0.122 7.25 4.97 7.47
8/4/2022 9:00:00 PM 20.57 69.026 0.122 7.25 4.83 7.44
8/4/2022 9:15:00 PM 20.5 68.9 0.122 7.24 4.9 7.4
8/4/2022 9:30:00 PM 20.43 68.774 0.122 7.24 4.96 7.41
8/4/2022 9:45:00 PM 20.36 68.648 0.122 7.23 4.94 7.39
8/4/2022 10:00:00 PM 20.29 68.522 0.123 7.23 4.83 7.4
8/4/2022 10:15:00 PM 20.23 68.414 0.123 7.22 4.85 7.38
8/4/2022 10:30:00 PM 20.17 68.306 0.123 7.22 4.88 7.38
8/4/2022 10:45:00 PM 20.11 68.198 0.123 7.21 4.95 7.39
8/4/2022 11:00:00 PM 20.05 68.09 0.123 7.21 5 7.38
8/4/2022 11:15:00 PM 19.99 67.982 0.123 7.21 4.98 7.39
8/4/2022 11:30:00 PM 19.94 67.892 0.123 7.21 4.99 7.37
8/4/2022 11:45:00 PM 19.88 67.784 0.123 7.21 5.02 7.4
8/5/2022 12:00:00 AM 19.83 67.694 0.123 7.2 4.96 7.4
8/5/2022 12:15:00 AM 19.77 67.586 0.123 7.2 4.87 7.39
8/5/2022 12:30:00 AM 19.71 67.478 0.123 7.2 5.14 7.42
8/5/2022 12:45:00 AM 19.65 67.37 0.123 7.2 4.92 7.43
8/5/2022 1:00:00 AM 19.6 67.28 0.123 7.2 5.07 7.43
8/5/2022 1:15:00 AM 19.54 67.172 0.123 7.2 5.03 7.44
8/5/2022 1:30:00 AM 19.48 67.064 0.123 7.19 4.99 7.45
8/5/2022 1:45:00 AM 19.43 66.974 0.123 7.2 5.09 7.47
8/5/2022 2:00:00 AM 19.37 66.866 0.123 7.2 5.08 7.52
8/5/2022 2:15:00 AM 19.33 66.794 0.123 7.19 5.14 7.49
8/5/2022 2:30:00 AM 19.28 66.704 0.123 7.19 5.02 7.51
8/5/2022 2:45:00 AM 19.23 66.614 0.123 7.19 5.17 7.5
8/5/2022 3:00:00 AM 19.19 66.542 0.123 7.19 5.02 7.5
8/5/2022 3:15:00 AM 19.13 66.434 0.123 7.19 5.03 7.52
8/5/2022 3:30:00 AM 19.08 66.344 0.123 7.19 4.98 7.55
8/5/2022 3:45:00 AM 19.04 66.272 0.123 7.19 5.17 7.53
8/5/2022 4:00:00 AM 18.99 66.182 0.123 7.18 5.21 7.56
8/5/2022 4:15:00 AM 18.95 66.11 0.123 7.18 5.33 7.57
8/5/2022 4:30:00 AM 18.91 66.038 0.123 7.17 23.05 7.49
8/5/2022 4:45:00 AM 18.87 65.966 0.123 7.18 5.23 7.57
8/5/2022 5:00:00 AM 18.83 65.894 0.123 7.18 4.5 7.51
8/5/2022 5:15:00 AM 18.8 65.84 0.123 7.17 5.25 7.56
8/5/2022 5:30:00 AM 18.76 65.768 0.123 7.18 4.7 7.54
8/5/2022 5:45:00 AM 18.73 65.714 0.123 7.17 5.13 7.59
8/5/2022 6:00:00 AM 18.7 65.66 0.123 7.17 4.94 7.63
8/5/2022 6:15:00 AM 18.68 65.624 0.123 7.18 4.67 7.6
8/5/2022 6:30:00 AM 18.66 65.588 0.123 7.19 4.71 7.6
8/5/2022 6:45:00 AM 18.66 65.588 0.123 7.19 5.16 7.71
8/5/2022 7:00:00 AM 18.66 65.588 0.123 7.2 4.75 7.84
8/5/2022 7:15:00 AM 18.68 65.624 0.123 7.21 9.49 7.94
8/5/2022 7:30:00 AM 18.72 65.696 0.123 7.22 5.84 8.06
8/5/2022 7:45:00 AM 18.76 65.768 0.123 7.24 4.71 8.14
8/5/2022 8:00:00 AM 18.82 65.876 0.122 7.25 4.74 8.23
8/5/2022 8:15:00 AM 18.88 65.984 0.122 7.27 4.34 8.2
8/5/2022 8:30:00 AM 18.96 66.128 0.122 7.29 4.44 8.37
8/5/2022 8:45:00 AM 19 66.2 0.122 7.29 5.66 8.32
8/5/2022 9:00:00 AM 19.05 66.29 0.122 7.3 4.54 8.5
8/5/2022 9:15:00 AM 19.09 66.362 0.121 7.3 4.42 8.44
8/5/2022 9:30:00 AM 19.16 66.488 0.121 7.32 4.79 8.5
8/5/2022 9:45:00 AM 19.24 66.632 0.121 7.32 5.32 8.56
8/5/2022 10:00:00 AM 19.35 66.83 0.121 7.33 9.68 8.59
8/5/2022 10:15:00 AM 19.45 67.01 0.121 7.35 4.56 8.69
8/5/2022 10:30:00 AM 19.54 67.172 0.121 7.36 4.46 8.72
8/5/2022 10:45:00 AM 19.64 67.352 0.12 7.37 5.23 8.76
8/5/2022 11:00:00 AM 19.83 67.694 0.12 7.39 4.43 8.86
8/5/2022 11:15:00 AM 20.19 68.342 0.12 7.41 4.2 8.9
8/5/2022 11:30:00 AM 20.37 68.666 0.12 7.43 4.37 8.88
8/5/2022 11:45:00 AM 20.62 69.116 0.12 7.44 4.23 8.88
8/5/2022 12:00:00 PM 20.89 69.602 0.12 7.45 4.28 8.76
8/5/2022 12:15:00 PM 21.15 70.07 0.12 7.45 4.19 8.7
8/5/2022 12:30:00 PM 21.45 70.61 0.12 7.44 5.53 8.69
8/5/2022 12:45:00 PM 21.65 70.97 0.12 7.45 6.31 8.66
8/5/2022 1:00:00 PM 21.8 71.24 0.12 7.46 4.35 8.54
8/5/2022 1:15:00 PM 21.86 71.348 0.12 7.44 4.54 8.39
8/5/2022 1:30:00 PM 22.01 71.618 0.12 7.46 4.18 8.33
8/5/2022 1:45:00 PM 22.04 71.672 0.12 7.45 4.36 8.37
8/5/2022 2:00:00 PM 22.04 71.672 0.121 7.44 4.07 8.19
8/5/2022 2:15:00 PM 22.13 71.834 0.12 7.44 4.04 8.23
8/5/2022 2:30:00 PM 22.12 71.816 0.121 7.43 4.2 8.13
8/5/2022 2:45:00 PM 22.18 71.924 0.121 7.42 4.14 8.08
8/5/2022 3:00:00 PM 22.21 71.978 0.121 7.41 4.21 7.78
8/5/2022 3:15:00 PM 22.31 72.158 0.121 7.41 4.6 7.94
8/5/2022 3:30:00 PM 22.27 72.086 0.121 7.39 5.03 7.63
8/5/2022 3:45:00 PM 22.09 71.762 0.094 7.42 11.4 8.09
8/5/2022 4:00:00 PM 21.93 71.474 0.096 7.42 10.24 8.12
8/5/2022 4:15:00 PM 22.07 71.726 0.092 7.4 10.26 7.92
8/5/2022 4:30:00 PM 22.1 71.78 0.093 7.37 11.82 7.84
8/5/2022 4:45:00 PM 21.89 71.402 0.094 7.32 11.27 7.82
8/5/2022 5:00:00 PM 21.66 70.988 0.096 7.31 9.54 7.83
8/5/2022 5:15:00 PM 21.45 70.61 0.096 7.3 9.58 7.84
8/5/2022 5:30:00 PM 21.29 70.32201 0.094 7.28 9.24 7.87
8/5/2022 5:45:00 PM 21.15 70.07 0.093 7.25 9.44 7.9
8/5/2022 6:00:00 PM 21.03 69.854 0.093 7.25 8.83 7.94
8/5/2022 6:15:00 PM 20.91 69.638 0.095 7.26 9.93 7.96
8/5/2022 6:30:00 PM 20.81 69.458 0.098 7.26 12.9 7.96
8/5/2022 6:45:00 PM 20.72 69.296 0.101 7.25 14.23 7.95
8/5/2022 7:00:00 PM 20.64 69.152 0.103 7.25 13.69 7.93
8/5/2022 7:15:00 PM 20.57 69.026 0.104 7.24 17.36 7.91
8/5/2022 7:30:00 PM 20.5 68.9 0.104 7.23 10.42 7.87
8/5/2022 7:45:00 PM 20.43 68.774 0.105 7.22 10.61 7.83
8/5/2022 8:00:00 PM 20.36 68.648 0.105 7.22 9.2 7.81
8/5/2022 8:15:00 PM 20.29 68.522 0.106 7.21 8.63 7.78
8/5/2022 8:30:00 PM 20.23 68.414 0.107 7.2 8.25 7.76
8/5/2022 8:45:00 PM 20.16 68.288 0.108 7.19 8.19 7.75
8/5/2022 9:00:00 PM 20.1 68.18 0.108 7.18 7.63 7.73
8/5/2022 9:15:00 PM 20.04 68.07201 0.109 7.18 7.46 7.73
8/5/2022 9:30:00 PM 19.99 67.982 0.109 7.17 7.06 7.72
8/5/2022 9:45:00 PM 19.95 67.91 0.11 7.17 7.21 7.72
8/5/2022 10:00:00 PM 19.9 67.82 0.111 7.17 6.92 7.73
8/5/2022 10:15:00 PM 19.85 67.73 0.111 7.17 6.69 7.72
8/5/2022 10:30:00 PM 19.8 67.64 0.112 7.16 6.71 7.72
8/5/2022 10:45:00 PM 19.76 67.568 0.112 7.16 6.58 7.72
8/5/2022 11:00:00 PM 19.71 67.478 0.113 7.16 6.6 7.73
8/5/2022 11:15:00 PM 19.66 67.388 0.113 7.16 6.58 7.75
8/5/2022 11:30:00 PM 19.61 67.298 0.113 7.17 6.46 7.74
8/5/2022 11:45:00 PM 19.57 67.226 0.114 7.17 6.34 7.75
8/6/2022 12:00:00 AM 19.52 67.136 0.114 7.17 6.28 7.76
8/6/2022 12:15:00 AM 19.48 67.064 0.115 7.17 6.34 7.76
8/6/2022 12:30:00 AM 19.44 66.992 0.115 7.17 6.32 7.77
8/6/2022 12:45:00 AM 19.41 66.938 0.115 7.17 6.06 7.77
8/6/2022 1:00:00 AM 19.37 66.866 0.116 7.17 5.96 7.78
8/6/2022 1:15:00 AM 19.34 66.812 0.116 7.17 6.01 7.79
8/6/2022 1:30:00 AM 19.32 66.776 0.116 7.17 5.93 7.79
8/6/2022 1:45:00 AM 19.29 66.722 0.117 7.17 6.13 7.79
8/6/2022 2:00:00 AM 19.26 66.668 0.117 7.17 5.91 7.8
8/6/2022 2:15:00 AM 19.24 66.632 0.117 7.17 6.05 7.81
8/6/2022 2:30:00 AM 19.21 66.578 0.117 7.17 5.93 7.81
8/6/2022 2:45:00 AM 19.19 66.542 0.118 7.17 5.97 7.81
8/6/2022 3:00:00 AM 19.17 66.506 0.118 7.17 5.98 7.83
8/6/2022 3:15:00 AM 19.15 66.47 0.118 7.11 5.76 7.82
8/6/2022 3:30:00 AM 19.13 66.434 0.118 7.17 5.86 7.83
8/6/2022 3:45:00 AM 19.11 66.398 0.119 7.17 5.92 7.84
8/6/2022 4:00:00 AM 19.08 66.344 0.119 7.17 5.85 7.84
8/6/2022 4:15:00 AM 19.07 66.326 0.119 7.17 6.04 7.84
8/6/2022 4:30:00 AM 19.05 66.29 0.119 7.17 6.15 7.84
8/6/2022 4:45:00 AM 19.03 66.254 0.12 7.17 9.64 7.85
8/6/2022 5:00:00 AM 19.01 66.218 0.12 7.17 5.76 7.86
8/6/2022 5:15:00 AM 18.99 66.182 0.12 7.17 5.93 7.87
8/6/2022 5:30:00 AM 18.98 66.164 0.12 7.17 5.72 7.87
8/6/2022 5:45:00 AM 18.97 66.146 0.12 7.17 6.18 7.87
8/6/2022 6:00:00 AM 18.97 66.146 0.12 7.18 6 7.86
8/6/2022 6:15:00 AM 18.97 66.146 0.12 7.19 5.94 7.93
8/6/2022 6:30:00 AM 18.98 66.164 0.12 7.21 5.83 8
8/6/2022 6:45:00 AM 19 66.2 0.12 7.22 5.93 8.06
8/6/2022 7:00:00 AM 19.04 66.272 0.12 7.24 5.86 8.2
8/6/2022 7:15:00 AM 19.09 66.362 0.12 7.26 5.81 8.32
8/6/2022 7:30:00 AM 19.13 66.434 0.12 7.28 5.78 8.39
8/6/2022 7:45:00 AM 19.16 66.488 0.12 7.29 5.7 8.42
8/6/2022 8:00:00 AM 19.23 66.614 0.12 7.31 5.87 8.5
8/6/2022 8:15:00 AM 19.28 66.704 0.12 7.32 5.75 8.5
8/6/2022 8:30:00 AM 19.42 66.956 0.12 7.33 5.65 8.56
8/6/2022 8:45:00 AM 19.61 67.298 0.12 7.34 5.77 8.61
8/6/2022 9:00:00 AM 19.81 67.658 0.12 7.36 5.64 8.63
8/6/2022 9:15:00 AM 19.98 67.964 0.12 7.37 5.68 8.63
8/6/2022 9:30:00 AM 20.04 68.07201 0.12 7.38 5.64 8.63
8/6/2022 9:45:00 AM 20.31 68.558 0.12 7.39 5.7 8.68
8/6/2022 10:00:00 AM 20.54 68.972 0.12 7.4 5.6 8.71
8/6/2022 10:15:00 AM 20.82 69.476 0.12 7.42 5.67 8.69
8/6/2022 10:30:00 AM 21.03 69.854 0.12 7.43 5.68 8.69
8/6/2022 10:45:00 AM 21.24 70.232 0.12 7.43 6.06 8.69
8/6/2022 11:00:00 AM 21.31 70.358 0.12 7.44 5.38 8.64
8/6/2022 11:15:00 AM 21.47 70.646 0.12 7.45 5.04 8.69
8/6/2022 11:30:00 AM 21.65 70.97 0.12 7.48 4.91 8.72
8/6/2022 11:45:00 AM 21.85 71.33 0.12 7.49 5.54 8.72
8/6/2022 12:00:00 PM 22.1 71.78 0.12 7.49 4.95 8.71
8/6/2022 12:15:00 PM 22.35 72.23 0.12 7.51 4.96 8.67
8/6/2022 12:30:00 PM 22.52 72.536 0.12 7.5 4.84 8.61
8/6/2022 12:45:00 PM 22.62 72.716 0.12 7.52 5.11 8.57
8/6/2022 1:00:00 PM 22.69 72.842 0.12 7.52 4.98 8.53
8/6/2022 1:15:00 PM 22.78 73.004 0.12 7.52 4.8 8.56
8/6/2022 1:30:00 PM 22.88 73.184 0.12 7.53 4.87 8.52
8/6/2022 1:45:00 PM 22.96 73.328 0.119 7.53 4.86 8.52
8/6/2022 2:00:00 PM 23.03 73.454 0.12 7.54 4.95 8.49
8/6/2022 2:15:00 PM 23.05 73.49 0.12 7.54 4.84 8.42
8/6/2022 2:30:00 PM 23.06 73.508 0.12 7.53 4.76 8.38
8/6/2022 2:45:00 PM 23.09 73.562 0.12 7.53 4.86 8.36
8/6/2022 3:00:00 PM 23.09 73.562 0.12 7.52 5 8.29
8/6/2022 3:15:00 PM 23.14 73.652 0.12 7.51 4.89 8.22
8/6/2022 3:30:00 PM 23.14 73.652 0.12 7.5 4.79 8.17
8/6/2022 3:45:00 PM 23.17 73.706 0.12 7.49 5.21 8.12
8/6/2022 4:00:00 PM 23.17 73.706 0.12 7.47 4.9 8.07
8/6/2022 4:15:00 PM 23.19 73.742 0.12 7.45 4.78 7.96
8/6/2022 4:30:00 PM 23.19 73.742 0.12 7.45 4.85 7.94
8/6/2022 4:45:00 PM 23.18 73.724 0.12 7.44 4.99 7.89
8/6/2022 5:00:00 PM 23.15 73.67 0.121 7.43 5 7.82
8/6/2022 5:15:00 PM 23.09 73.562 0.121 7.41 4.89 7.76
8/6/2022 5:30:00 PM 23.03 73.454 0.121 7.41 5.12 7.75
8/6/2022 5:45:00 PM 22.96 73.328 0.121 7.4 5.08 7.72
8/6/2022 6:00:00 PM 22.88 73.184 0.121 7.38 4.93 7.62
8/6/2022 6:15:00 PM 22.81 73.058 0.121 7.36 5.13 7.59
8/6/2022 6:30:00 PM 22.73 72.914 0.121 7.36 4.89 7.62
8/6/2022 6:45:00 PM 22.63 72.734 0.121 7.36 5.05 7.58
8/6/2022 7:00:00 PM 22.52 72.536 0.122 7.34 5.01 7.51
8/6/2022 7:15:00 PM 22.39 72.302 0.122 7.33 4.99 7.48
8/6/2022 7:30:00 PM 22.29 72.122 0.122 7.32 5.1 7.41
8/6/2022 7:45:00 PM 22.16 71.888 0.122 7.31 5.25 7.42
8/6/2022 8:00:00 PM 22.05 71.69 0.122 7.3 5.31 7.4
8/6/2022 8:15:00 PM 21.94 71.492 0.122 7.29 5.27 7.37
8/6/2022 8:30:00 PM 21.84 71.312 0.122 7.28 5.3 7.36
8/6/2022 8:45:00 PM 21.74 71.132 0.123 7.27 5.33 7.35
8/6/2022 9:00:00 PM 21.64 70.952 0.123 7.26 5.35 7.35
8/6/2022 9:15:00 PM 21.54 70.772 0.123 7.25 5.23 7.35
8/6/2022 9:30:00 PM 21.44 70.592 0.123 7.24 5.24 7.36
8/6/2022 9:45:00 PM 21.35 70.43 0.123 7.24 5.48 7.36
8/6/2022 10:00:00 PM 21.27 70.286 0.123 7.24 5.45 7.36
8/6/2022 10:15:00 PM 21.19 70.142 0.123 7.23 5.51 7.38
8/6/2022 10:30:00 PM 21.11 69.998 0.123 7.23 5.46 7.39
8/6/2022 10:45:00 PM 21.03 69.854 0.123 7.22 5.29 7.41
8/6/2022 11:00:00 PM 20.95 69.71 0.123 7.22 5.3 7.42
8/6/2022 11:15:00 PM 20.86 69.548 0.123 7.22 5.34 7.43
8/6/2022 11:30:00 PM 20.79 69.422 0.123 7.22 5.34 7.43
8/6/2022 11:45:00 PM 20.73 69.314 0.124 7.22 5.29 7.45
8/7/2022 12:00:00 AM 20.66 69.188 0.124 7.21 5.3 7.46
8/7/2022 12:15:00 AM 20.59 69.062 0.124 7.21 5.25 7.47
8/7/2022 12:30:00 AM 20.53 68.954 0.124 7.21 5.44 7.49
8/7/2022 12:45:00 AM 20.48 68.864 0.124 7.2 5.34 7.5
8/7/2022 1:00:00 AM 20.43 68.774 0.124 7.2 5.15 7.5
8/7/2022 1:15:00 AM 20.38 68.684 0.124 7.2 5.32 7.51
8/7/2022 1:30:00 AM 20.34 68.612 0.124 7.2 5.35 7.53
8/7/2022 1:45:00 AM 20.3 68.54 0.124 7.2 5.31 7.55
8/7/2022 2:00:00 AM 20.26 68.468 0.124 7.21 5.19 7.54
8/7/2022 2:15:00 AM 20.22 68.396 0.124 7.21 5.3 7.56
8/7/2022 2:30:00 AM 20.19 68.342 0.124 7.21 5.29 7.56
8/7/2022 2:45:00 AM 20.15 68.27 0.124 7.21 5.37 7.58
8/7/2022 3:00:00 AM 20.11 68.198 0.124 7.21 5.28 7.58
8/7/2022 3:15:00 AM 20.08 68.144 0.124 7.21 5.41 7.59
8/7/2022 3:30:00 AM 20.04 68.07201 0.124 7.21 5.43 7.59
8/7/2022 3:45:00 AM 20.01 68.018 0.124 7.21 5.77 7.59
8/7/2022 4:00:00 AM 19.97 67.946 0.124 7.21 5.39 7.61
8/7/2022 4:15:00 AM 19.94 67.892 0.124 7.21 5.47 7.62
8/7/2022 4:30:00 AM 19.91 67.838 0.124 7.21 6.68 7.63
8/7/2022 4:45:00 AM 19.88 67.784 0.124 7.21 6.04 7.65
8/7/2022 5:00:00 AM 19.85 67.73 0.124 7.2 6.82 7.62
8/7/2022 5:15:00 AM 19.82 67.676 0.124 7.2 6.11 7.63
8/7/2022 5:30:00 AM 19.79 67.622 0.124 7.2 5.45 7.64
8/7/2022 5:45:00 AM 19.77 67.586 0.124 7.2 5.61 7.64
8/7/2022 6:00:00 AM 19.74 67.532 0.124 7.2 5.57 7.63
8/7/2022 6:15:00 AM 19.72 67.496 0.124 7.2 5.69 7.68
8/7/2022 6:30:00 AM 19.72 67.496 0.124 7.21 5.57 7.77
8/7/2022 6:45:00 AM 19.71 67.478 0.124 7.21 5.5 7.79
8/7/2022 7:00:00 AM 19.7 67.46 0.124 7.22 5.71 7.81
8/7/2022 7:15:00 AM 19.71 67.478 0.124 7.23 5.51 7.92
8/7/2022 7:30:00 AM 19.73 67.514 0.124 7.24 5.53 8.02
8/7/2022 7:45:00 AM 19.76 67.568 0.123 7.26 5.36 8.11
8/7/2022 8:00:00 AM 19.78 67.604 0.123 7.26 5.46 8.16
8/7/2022 8:15:00 AM 19.79 67.622 0.123 7.26 5.43 8.15
8/7/2022 8:30:00 AM 19.8 67.64 0.123 7.27 5.52 8.16
8/7/2022 8:45:00 AM 19.83 67.694 0.123 7.28 5.46 8.23
8/7/2022 9:00:00 AM 19.93 67.874 0.123 7.3 5.5 8.37
8/7/2022 9:15:00 AM 20.17 68.306 0.123 7.33 5.32 8.43
8/7/2022 9:30:00 AM 20.2 68.36 0.123 7.35 5.54 8.49
8/7/2022 9:45:00 AM 20.29 68.522 0.123 7.36 5.68 8.57
8/7/2022 10:00:00 AM 20.46 68.828 0.122 7.38 5.47 8.66
8/7/2022 10:15:00 AM 20.77 69.386 0.122 7.4 6.26 8.72
8/7/2022 10:30:00 AM 21.07 69.926 0.122 7.44 5.88 8.78
8/7/2022 10:45:00 AM 21.39 70.502 0.122 7.46 5.67 8.81
8/7/2022 11:00:00 AM 21.66 70.988 0.122 7.47 18.2 8.8
8/7/2022 11:15:00 AM 21.9 71.42 0.121 7.49 5.86 8.79
8/7/2022 11:30:00 AM 22.22 71.996 0.121 7.5 5.85 8.76
8/7/2022 11:45:00 AM 22.55 72.59 0.121 7.51 5.87 8.7
8/7/2022 12:00:00 PM 22.85 73.13 0.121 7.52 5.96 8.68
8/7/2022 12:15:00 PM 23.06 73.508 0.121 7.53 5.47 8.69
8/7/2022 12:30:00 PM 23.12 73.616 0.121 7.55 5.47 8.65
8/7/2022 12:45:00 PM 23.14 73.652 0.122 7.53 5.46 8.47
8/7/2022 1:00:00 PM 23.12 73.616 0.122 7.49 6.17 8.31
8/7/2022 1:15:00 PM 23.18 73.724 0.121 7.52 5.74 8.41
8/7/2022 1:30:00 PM 23.2 73.76 0.122 7.51 5.51 8.34
8/7/2022 1:45:00 PM 23.23 73.814 0.122 7.51 5.75 8.31
8/7/2022 2:00:00 PM 23.25 73.85 0.121 7.5 5.89 8.24
8/7/2022 2:15:00 PM 23.26 73.868 0.121 7.5 5.47 8.22
8/7/2022 2:30:00 PM 23.28 73.904 0.121 7.48 5.2 8.15
8/7/2022 2:45:00 PM 23.28 73.904 0.121 7.47 5.27 8.07
8/7/2022 3:00:00 PM 23.25 73.85 0.119 7.45 5.65 7.98
8/7/2022 3:15:00 PM 23.25 73.85 0.12 7.45 5.47 8
8/7/2022 3:30:00 PM 23.22 73.796 0.12 7.45 32.77 7.88
8/7/2022 3:45:00 PM 23.19 73.742 0.12 7.45 7.18 8.01
8/7/2022 4:00:00 PM 23.14 73.652 0.12 7.45 5.6 8.02
8/7/2022 4:15:00 PM 23.09 73.562 0.121 7.45 9.8 8.01
8/7/2022 4:30:00 PM 23.03 73.454 0.121 7.44 6.52 7.92
8/7/2022 4:45:00 PM 23.02 73.436 0.121 7.44 5.65 7.96
8/7/2022 5:00:00 PM 22.98 73.364 0.121 7.43 5.62 7.9
8/7/2022 5:15:00 PM 22.97 73.346 0.121 7.42 5.54 7.89
8/7/2022 5:30:00 PM 22.93 73.274 0.121 7.41 5.66 7.84
8/7/2022 5:45:00 PM 22.89 73.202 0.121 7.4 5.69 7.79
8/7/2022 6:00:00 PM 22.84 73.112 0.121 7.38 5.69 7.74
8/7/2022 6:15:00 PM 22.78 73.004 0.121 7.38 5.71 7.71
8/7/2022 6:30:00 PM 22.72 72.896 0.122 7.36 5.72 7.68
8/7/2022 6:45:00 PM 22.64 72.752 0.122 7.35 5.67 7.6
8/7/2022 7:00:00 PM 22.55 72.59 0.122 7.34 5.65 7.56
8/7/2022 7:15:00 PM 22.46 72.42799 0.122 7.33 5.65 7.53
8/7/2022 7:30:00 PM 22.36 72.248 0.122 7.32 5.55 7.5
8/7/2022 7:45:00 PM 22.25 72.05 0.122 7.31 5.74 7.44
8/7/2022 8:00:00 PM 22.15 71.87 0.123 7.29 5.86 7.35
8/7/2022 8:15:00 PM 22.04 71.672 0.123 7.28 5.74 7.36
8/7/2022 8:30:00 PM 21.93 71.474 0.123 7.27 5.84 7.34
8/7/2022 8:45:00 PM 21.83 71.294 0.123 7.26 5.73 7.32
8/7/2022 9:00:00 PM 21.73 71.114 0.123 7.25 5.89 7.3
8/7/2022 9:15:00 PM 21.62 70.916 0.123 7.25 5.78 7.3
8/7/2022 9:30:00 PM 21.52 70.736 0.123 7.24 5.89 7.31
8/7/2022 9:45:00 PM 21.43 70.574 0.124 7.23 5.86 7.31
8/7/2022 10:00:00 PM 21.33 70.394 0.124 7.23 5.78 7.31
8/7/2022 10:15:00 PM 21.24 70.232 0.124 7.23 6.03 7.3
8/7/2022 10:30:00 PM 21.16 70.088 0.124 7.22 5.83 7.32
8/7/2022 10:45:00 PM 21.06 69.908 0.124 7.22 5.66 7.33
8/7/2022 11:00:00 PM 20.98 69.764 0.124 7.21 5.82 7.35
8/7/2022 11:15:00 PM 20.9 69.62 0.124 7.21 5.74 7.34
8/7/2022 11:30:00 PM 20.81 69.458 0.124 7.21 5.86 7.36
8/7/2022 11:45:00 PM 20.73 69.314 0.124 7.21 5.84 7.37
8/8/2022 12:00:00 AM 20.65 69.17 0.124 7.21 5.73 7.4
8/8/2022 12:15:00 AM 20.57 69.026 0.124 7.21 5.91 7.41
8/8/2022 12:30:00 AM 20.5 68.9 0.124 7.2 5.91 7.41
8/8/2022 12:45:00 AM 20.43 68.774 0.124 7.2 5.71 7.43
8/8/2022 1:00:00 AM 20.37 68.666 0.124 7.2 5.91 7.45
8/8/2022 1:15:00 AM 20.3 68.54 0.124 7.2 5.77 7.46
8/8/2022 1:30:00 AM 20.25 68.45 0.124 7.2 5.99 7.47
8/8/2022 1:45:00 AM 20.2 68.36 0.124 7.2 6.09 7.48
8/8/2022 2:00:00 AM 20.15 68.27 0.124 7.2 5.93 7.47
8/8/2022 2:15:00 AM 20.1 68.18 0.124 7.19 6.02 7.49
8/8/2022 2:30:00 AM 20.06 68.108 0.124 7.19 5.99 7.52
8/8/2022 2:45:00 AM 20.03 68.054 0.124 7.19 5.79 7.52
8/8/2022 3:00:00 AM 19.99 67.982 0.124 7.19 5.96 7.53
8/8/2022 3:15:00 AM 19.95 67.91 0.124 7.19 6.02 7.55
8/8/2022 3:30:00 AM 19.92 67.856 0.124 7.19 5.9 7.55
8/8/2022 3:45:00 AM 19.89 67.802 0.124 7.19 5.91 7.55
8/8/2022 4:00:00 AM 19.85 67.73 0.124 7.19 5.92 7.56
8/8/2022 4:15:00 AM 19.82 67.676 0.124 7.19 6.66 7.56
8/8/2022 4:30:00 AM 19.79 67.622 0.124 7.19 5.76 7.52
8/8/2022 4:45:00 AM 19.77 67.586 0.125 7.19 6.03 7.5
8/8/2022 5:00:00 AM 19.74 67.532 0.124 7.19 5.96 7.57
8/8/2022 5:15:00 AM 19.71 67.478 0.125 7.19 6.01 7.56
8/8/2022 5:30:00 AM 19.68 67.424 0.125 7.19 5.73 7.56
8/8/2022 5:45:00 AM 19.66 67.388 0.125 7.19 5.92 7.57
8/8/2022 6:00:00 AM 19.64 67.352 0.125 7.19 5.82 7.6
8/8/2022 6:15:00 AM 19.63 67.334 0.125 7.19 5.77 7.62
8/8/2022 6:30:00 AM 19.62 67.316 0.125 7.19 5.74 7.65
8/8/2022 6:45:00 AM 19.62 67.316 0.125 7.19 6.34 7.68
8/8/2022 7:00:00 AM 19.62 67.316 0.124 7.2 5.97 7.72
8/8/2022 7:15:00 AM 19.62 67.316 0.124 7.21 5.55 7.76
8/8/2022 7:30:00 AM 19.62 67.316 0.124 7.21 5.63 7.79
8/8/2022 7:45:00 AM 19.63 67.334 0.124 7.22 5.49 7.84
8/8/2022 8:00:00 AM 19.64 67.352 0.124 7.23 5.56 7.89
8/8/2022 8:15:00 AM 19.67 67.406 0.124 7.23 5.46 7.96
8/8/2022 8:30:00 AM 19.69 67.442 0.124 7.24 5.42 8
8/8/2022 8:45:00 AM 19.71 67.478 0.124 7.24 5.29 8.03
8/8/2022 9:00:00 AM 19.75 67.55 0.124 7.26 5.39 8.07
8/8/2022 9:15:00 AM 19.83 67.694 0.124 7.28 5.3 8.19
8/8/2022 9:30:00 AM 19.9 67.82 0.124 7.29 5.26 8.24
8/8/2022 9:45:00 AM 19.94 67.892 0.123 7.3 5.36 8.27
8/8/2022 10:00:00 AM 19.97 67.946 0.123 7.31 5.27 8.31
8/8/2022 10:15:00 AM 20.06 68.108 0.123 7.33 5.29 8.39
8/8/2022 10:30:00 AM 20.15 68.27 0.123 7.35 6.02 8.46
8/8/2022 10:45:00 AM 20.3 68.54 0.123 7.37 5.67 8.55
8/8/2022 11:00:00 AM 20.44 68.792 0.123 7.39 5.65 8.58
8/8/2022 11:15:00 AM 20.66 69.188 0.122 7.41 5.6 8.65
8/8/2022 11:30:00 AM 20.85 69.53 0.122 7.42 5.67 8.65
8/8/2022 11:45:00 AM 21.06 69.908 0.122 7.44 5.47 8.67
8/8/2022 12:00:00 PM 21.44 70.592 0.122 7.45 6.17 8.66
8/8/2022 12:15:00 PM 21.65 70.97 0.122 7.47 5.64 8.69
8/8/2022 12:30:00 PM 21.72 71.096 0.122 7.48 4.58 8.66
8/8/2022 12:45:00 PM 21.83 71.294 0.122 7.47 5 8.59
8/8/2022 1:00:00 PM 21.87 71.366 0.122 7.49 5.01 8.63
8/8/2022 1:15:00 PM 21.97 71.546 0.121 7.49 4.7 8.63
8/8/2022 1:30:00 PM 22 71.6 0.122 7.51 4.73 8.64
8/8/2022 1:45:00 PM 22.02 71.636 0.122 7.49 4.75 8.52
8/8/2022 2:00:00 PM 22 71.6 0.122 7.5 5.02 8.5
8/8/2022 2:15:00 PM 21.99 71.582 0.121 7.48 4.59 8.42
8/8/2022 2:30:00 PM 21.96 71.528 0.121 7.46 4.73 8.3
8/8/2022 2:45:00 PM 21.96 71.528 0.121 7.46 4.69 8.34
8/8/2022 3:00:00 PM 21.97 71.546 0.121 7.47 4.57 8.34
8/8/2022 3:15:00 PM 21.98 71.564 0.121 7.47 4.56 8.37
8/8/2022 3:30:00 PM 22 71.6 0.121 7.47 4.67 8.4
8/8/2022 3:45:00 PM 22 71.6 0.121 7.48 4.15 8.4
8/8/2022 4:00:00 PM 22.02 71.636 0.121 7.47 4.32 8.35
8/8/2022 4:15:00 PM 22.03 71.654 0.121 7.47 4.09 8.32
8/8/2022 4:30:00 PM 22.04 71.672 0.121 7.46 4.24 8.29
8/8/2022 4:45:00 PM 22.04 71.672 0.121 7.45 4.17 8.13
8/8/2022 5:00:00 PM 22.02 71.636 0.122 7.43 4.07 8.09
8/8/2022 5:15:00 PM 22.03 71.654 0.121 7.43 4 8.07
8/8/2022 5:30:00 PM 22.02 71.636 0.122 7.42 3.93 8.03
8/8/2022 5:45:00 PM 22.02 71.636 0.122 7.39 9.88 7.9
8/8/2022 6:00:00 PM 21.98 71.564 0.122 7.39 4.67 7.81
8/8/2022 6:15:00 PM 21.95 71.51 0.122 7.38 4.3 7.84
8/8/2022 6:30:00 PM 21.91 71.438 0.122 7.37 4.45 7.78
8/8/2022 6:45:00 PM 21.86 71.348 0.122 7.36 4.42 7.72
8/8/2022 7:00:00 PM 21.8 71.24 0.122 7.33 4.15 7.61
8/8/2022 7:15:00 PM 21.74 71.132 0.122 7.33 4.16 7.59
8/8/2022 7:30:00 PM 21.67 71.006 0.122 7.32 4.2 7.54
8/8/2022 7:45:00 PM 21.59 70.862 0.123 7.3 9.59 7.51
8/8/2022 8:00:00 PM 21.52 70.736 0.123 7.28 15.63 7.43
8/8/2022 8:15:00 PM 21.44 70.592 0.123 7.28 5.05 7.44
8/8/2022 8:30:00 PM 21.35 70.43 0.123 7.27 4.8 7.4
8/8/2022 8:45:00 PM 21.29 70.32201 0.123 7.26 4.71 7.37
8/8/2022 9:00:00 PM 21.2 70.16 0.124 7.25 4.74 7.37
8/8/2022 9:15:00 PM 21.12 70.016 0.124 7.25 4.48 7.35
8/8/2022 9:30:00 PM 21.05 69.89 0.124 7.24 4.53 7.34
8/8/2022 9:45:00 PM 20.97 69.746 0.124 7.24 4.52 7.34
8/8/2022 10:00:00 PM 20.89 69.602 0.124 7.23 4.5 7.34
8/8/2022 10:15:00 PM 20.83 69.494 0.124 7.23 4.54 7.35
8/8/2022 10:30:00 PM 20.76 69.368 0.124 7.23 4.51 7.36
8/8/2022 10:45:00 PM 20.69 69.242 0.124 7.22 4.47 7.36
8/8/2022 11:00:00 PM 20.62 69.116 0.124 7.22 4.43 7.38
8/8/2022 11:15:00 PM 20.55 68.99 0.124 7.22 4.53 7.38
8/8/2022 11:30:00 PM 20.5 68.9 0.124 7.21 4.62 7.4
8/8/2022 11:45:00 PM 20.45 68.81 0.124 7.21 4.55 7.38
8/9/2022 12:00:00 AM 20.39 68.702 0.124 7.21 4.4 7.41
8/9/2022 12:15:00 AM 20.34 68.612 0.124 7.21 4.44 7.42
8/9/2022 12:30:00 AM 20.3 68.54 0.124 7.21 4.39 7.43
8/9/2022 12:45:00 AM 20.26 68.468 0.124 7.21 4.3 7.43
8/9/2022 1:00:00 AM 20.22 68.396 0.124 7.2 4.46 7.44
8/9/2022 1:15:00 AM 20.18 68.324 0.124 7.2 4.37 7.44
8/9/2022 1:30:00 AM 20.15 68.27 0.124 7.2 4.4 7.45
8/9/2022 1:45:00 AM 20.12 68.216 0.124 7.2 4.47 7.46
8/9/2022 2:00:00 AM 20.08 68.144 0.124 7.2 4.36 7.48
8/9/2022 2:15:00 AM 20.05 68.09 0.124 7.19 4.37 7.47
8/9/2022 2:30:00 AM 20.02 68.036 0.125 7.19 4.29 7.46
8/9/2022 2:45:00 AM 19.99 67.982 0.125 7.19 4.4 7.47
8/9/2022 3:00:00 AM 19.97 67.946 0.125 7.19 4.35 7.47
8/9/2022 3:15:00 AM 19.95 67.91 0.125 7.19 4.26 7.46
8/9/2022 3:30:00 AM 19.92 67.856 0.125 7.19 4.26 7.45
8/9/2022 3:45:00 AM 19.9 67.82 0.125 7.19 4.33 7.5
8/9/2022 4:00:00 AM 19.88 67.784 0.125 7.19 4.49 7.5
8/9/2022 4:15:00 AM 19.86 67.748 0.125 7.19 4.43 7.51
8/9/2022 4:30:00 AM 19.84 67.712 0.125 7.18 4.62 7.5
8/9/2022 4:45:00 AM 19.83 67.694 0.125 7.18 4.63 7.5
8/9/2022 5:00:00 AM 19.81 67.658 0.125 7.19 5.03 7.5
8/9/2022 5:15:00 AM 19.79 67.622 0.125 7.18 5.04 7.49
8/9/2022 5:30:00 AM 19.77 67.586 0.125 7.18 5.18 7.53
8/9/2022 5:45:00 AM 19.76 67.568 0.125 7.18 5.09 7.54
8/9/2022 6:00:00 AM 19.75 67.55 0.125 7.19 6.21 7.55
8/9/2022 6:15:00 AM 19.74 67.532 0.125 7.19 5.13 7.57
8/9/2022 6:30:00 AM 19.74 67.532 0.125 7.19 5.63 7.6
8/9/2022 6:45:00 AM 19.73 67.514 0.125 7.19 4.87 7.63
8/9/2022 7:00:00 AM 19.73 67.514 0.125 7.19 4.59 7.63
8/9/2022 7:15:00 AM 19.73 67.514 0.125 7.19 4.7 7.68
8/9/2022 7:30:00 AM 19.73 67.514 0.125 7.19 4.56 7.72
8/9/2022 7:45:00 AM 19.77 67.586 0.125 7.21 4.46 7.85
8/9/2022 8:00:00 AM 19.81 67.658 0.124 7.23 4.51 7.94
8/9/2022 8:15:00 AM 19.82 67.676 0.125 7.24 4.45 7.92
8/9/2022 8:30:00 AM 19.86 67.748 0.124 7.24 4.57 7.98
8/9/2022 8:45:00 AM 19.94 67.892 0.123 7.27 4.5 8.11
8/9/2022 9:00:00 AM 19.96 67.92799 0.123 7.28 4.48 8.14
8/9/2022 9:15:00 AM 19.95 67.91 0.123 7.29 4.46 8.13
8/9/2022 9:30:00 AM 19.96 67.92799 0.123 7.29 4.45 8.15
8/9/2022 9:45:00 AM 20.01 68.018 0.123 7.31 4.49 8.24
8/9/2022 10:00:00 AM 20.04 68.07201 0.123 7.32 4.42 8.28
8/9/2022 10:15:00 AM 20.08 68.144 0.123 7.33 4.38 8.34
8/9/2022 10:30:00 AM 20.16 68.288 0.123 7.36 4.35 8.48
8/9/2022 10:45:00 AM 20.25 68.45 0.122 7.38 4.4 8.56
8/9/2022 11:00:00 AM 20.33 68.594 0.122 7.39 4.34 8.61
8/10/2022 11:15:00 AM -99999.99 -179968 -99999.99 -99999.99 -99999.99 -99999.99
8/10/2022 11:30:00 AM -99999.99 -179968 -99999.99 -99999.99 -99999.99 -99999.99
8/10/2022 11:45:00 AM -99999.99 -179968 -99999.99 -99999.99 -99999.99 -99999.99
8/10/2022 12:00:00 PM -99999.99 -179968 -99999.99 -99999.99 -99999.99 -99999.99
8/10/2022 12:15:00 PM -99999.99 -179968 -99999.99 -99999.99 -99999.99 -99999.99
8/10/2022 12:30:00 PM -99999.99 -179968 -99999.99 -99999.99 -99999.99 -99999.99
8/10/2022 12:45:00 PM -99999.99 -179968 -99999.99 -99999.99 -99999.99 -99999.99
8/10/2022 1:00:00 PM -99999.99 -179968 -99999.99 -99999.99 -99999.99 -99999.99
8/10/2022 1:15:00 PM -99999.99 -179968 -99999.99 -99999.99 -99999.99 -99999.99
8/10/2022 1:30:00 PM -99999.99 -179968 -99999.99 -99999.99 -99999.99 -99999.99
8/10/2022 2:00:00 PM -99999.99 -179968 -99999.99 -99999.99 -99999.99 -99999.99
8/10/2022 2:15:00 PM -99999.99 -179968 -99999.99 -99999.99 -99999.99 -99999.99

These are provisional data and have not been subject to a quality assurance process, but rather are the raw data reported by the instrument.
H: value is above sensor operating range
L: value is below sensor operating range
Offline: station is not reporting data
NC: parameter is not collected at site

Data Availability & Limitations

Uncertainty and potential for error can be associated with environmental monitoring data. Provisional data have not been subject to a quality assurance process, but rather are the raw data reported by the instrument. Data users are cautioned to consider carefully the provisional nature of the information before using it for decisions that concern personal or public safety or the conduct of business that involves substantial monetary or operational consequences.

Approved data are currently available by request by emailing: srbc@srbc.net. Approved data have been subject to a quality assurance process to correct for equipment or fouling drift. Data recorded during equipment malfunctions have been removed.

View Historical Stations that have been discontinued.